createdAt,value
2023-02-11T00:00:35.196Z,2.32
2023-02-11T00:03:26.745Z,2.33
2023-02-11T00:06:14.783Z,2.34
2023-02-11T00:09:03.665Z,2.36
2023-02-11T00:11:52.820Z,2.37
2023-02-11T00:14:40.468Z,2.39
2023-02-11T00:17:28.229Z,2.42
2023-02-11T00:20:16.401Z,2.41
2023-02-11T00:23:04.644Z,2.42
2023-02-11T00:25:52.683Z,2.42
2023-02-11T00:28:41.337Z,2.43
2023-02-11T00:31:30.090Z,2.44
2023-02-11T00:34:18.494Z,2.44
2023-02-11T00:37:06.562Z,2.45
2023-02-11T00:39:54.919Z,2.48
2023-02-11T00:42:43.140Z,2.46
2023-02-11T00:45:31.087Z,2.44
2023-02-11T00:48:19.410Z,2.46
2023-02-11T00:51:07.813Z,2.48
2023-02-11T00:53:55.650Z,2.50
2023-02-11T00:56:44.532Z,2.51
2023-02-11T00:59:32.595Z,2.51
2023-02-11T01:02:22.248Z,2.51
2023-02-11T01:05:10.249Z,2.49
2023-02-11T01:07:58.753Z,2.50
2023-02-11T01:10:54.429Z,2.53
2023-02-11T01:13:43.021Z,2.54
2023-02-11T01:16:31.033Z,2.56
2023-02-11T01:19:19.093Z,2.57
2023-02-11T01:22:07.312Z,2.55
2023-02-11T01:24:55.106Z,2.60
2023-02-11T01:27:43.394Z,2.59
2023-02-11T01:30:31.801Z,2.59
2023-02-11T01:33:19.557Z,2.58
2023-02-11T01:36:08.172Z,2.54
2023-02-11T01:38:55.864Z,2.52
2023-02-11T01:41:43.921Z,2.50
2023-02-11T01:44:37.252Z,2.46
2023-02-11T01:47:25.169Z,2.43
2023-02-11T01:50:13.376Z,2.39
2023-02-11T01:53:21.263Z,2.35
2023-02-11T01:56:29.001Z,2.32
2023-02-11T01:59:44.769Z,2.26
2023-02-11T02:02:50.586Z,2.20
2023-02-11T02:06:11.053Z,2.16
2023-02-11T02:09:28.973Z,2.12
2023-02-11T02:12:16.932Z,2.10
2023-02-11T02:15:34.665Z,2.09
2023-02-11T02:19:00.628Z,2.09
2023-02-11T02:22:32.999Z,2.10
2023-02-11T02:25:56.111Z,2.11
2023-02-11T02:29:24.925Z,2.08
2023-02-11T02:32:27.486Z,2.10
2023-02-11T02:36:07.378Z,2.09
2023-02-11T02:39:11.844Z,2.06
2023-02-11T02:41:59.994Z,2.03
2023-02-11T02:44:52.654Z,2.02
2023-02-11T02:47:40.821Z,2.01
2023-02-11T02:50:36.965Z,1.97
2023-02-11T02:54:11.891Z,1.95
2023-02-11T02:57:18.211Z,1.94
2023-02-11T03:00:23.432Z,1.91
2023-02-11T03:03:29.675Z,1.90
2023-02-11T03:06:31.329Z,1.88
2023-02-11T03:09:42.793Z,1.87
2023-02-11T03:12:33.337Z,1.88
2023-02-11T03:15:24.464Z,1.90
2023-02-11T03:18:17.262Z,1.89
2023-02-11T03:21:08.866Z,1.90
2023-02-11T03:24:03.458Z,1.91
2023-02-11T03:26:59.249Z,1.91
2023-02-11T03:30:06.314Z,1.92
2023-02-11T03:33:21.213Z,1.91
2023-02-11T03:36:22.494Z,1.90
2023-02-11T03:39:14.553Z,1.90
2023-02-11T03:42:04.352Z,1.87
2023-02-11T03:45:01.748Z,1.88
2023-02-11T03:47:59.180Z,1.88
2023-02-11T03:50:50.209Z,1.89
2023-02-11T03:53:41.601Z,1.90
2023-02-11T03:56:37.280Z,1.90
2023-02-11T03:59:26.060Z,1.91
2023-02-11T04:02:14.116Z,1.92
2023-02-11T04:05:02.463Z,1.94
2023-02-11T04:07:50.116Z,1.95
2023-02-11T04:10:38.172Z,1.98
2023-02-11T04:13:26.413Z,2.00
2023-02-11T04:16:15.382Z,2.00
2023-02-11T04:19:03.065Z,1.97
2023-02-11T04:21:51.013Z,2.00
2023-02-11T04:24:39.043Z,2.00
2023-02-11T04:27:26.950Z,2.01
2023-02-11T04:30:14.980Z,2.02
2023-02-11T04:33:02.930Z,2.02
2023-02-11T04:35:51.206Z,2.07
2023-02-11T04:38:39.314Z,2.10
2023-02-11T04:41:27.440Z,2.12
2023-02-11T04:44:15.604Z,2.16
2023-02-11T04:47:03.287Z,2.16
2023-02-11T04:49:51.136Z,2.19
2023-02-11T04:52:38.881Z,2.19
2023-02-11T04:55:26.884Z,2.23
2023-02-11T04:58:14.655Z,2.24
2023-02-11T05:01:12.664Z,2.25
2023-02-11T05:04:00.475Z,2.25
2023-02-11T05:06:48.448Z,2.27
2023-02-11T05:09:36.400Z,2.30
2023-02-11T05:12:24.343Z,2.30
2023-02-11T05:15:11.966Z,2.32
2023-02-11T05:17:59.700Z,2.33
2023-02-11T05:20:47.761Z,2.34
2023-02-11T05:23:36.626Z,2.37
2023-02-11T05:26:24.733Z,2.40
2023-02-11T05:29:12.428Z,2.44
2023-02-11T05:32:00.466Z,2.47
2023-02-11T05:34:48.505Z,2.51
2023-02-11T05:37:36.802Z,2.55
2023-02-11T05:40:24.623Z,2.60
2023-02-11T05:43:12.430Z,2.65
2023-02-11T05:46:00.315Z,2.68
2023-02-11T05:48:48.153Z,2.73
2023-02-11T05:51:35.961Z,2.77
2023-02-11T05:54:23.897Z,2.80
2023-02-11T05:57:12.150Z,2.85
2023-02-11T06:00:00.230Z,2.89
2023-02-11T06:02:48.094Z,2.90
2023-02-11T06:05:35.751Z,2.95
2023-02-11T06:08:23.889Z,2.98
2023-02-11T06:11:11.578Z,3.02
2023-02-11T06:13:59.720Z,3.06
2023-02-11T06:16:47.833Z,3.11
2023-02-11T06:19:36.411Z,3.15
2023-02-11T06:22:24.404Z,3.21
2023-02-11T06:25:13.440Z,3.24
2023-02-11T06:28:01.793Z,3.27
2023-02-11T06:30:49.978Z,3.30
2023-02-11T06:33:38.906Z,3.33
2023-02-11T06:36:26.807Z,3.37
2023-02-11T06:39:14.959Z,3.39
2023-02-11T06:42:03.920Z,3.42
2023-02-11T06:44:52.828Z,3.46
2023-02-11T06:47:41.420Z,3.49
2023-02-11T06:50:29.018Z,3.53
2023-02-11T06:53:16.787Z,3.54
2023-02-11T06:56:07.519Z,3.60
2023-02-11T06:58:56.953Z,3.63
2023-02-11T07:01:45.212Z,3.66
2023-02-11T07:04:33.164Z,3.68
2023-02-11T07:07:21.526Z,3.71
2023-02-11T07:10:09.586Z,3.72
2023-02-11T07:12:58.833Z,3.75
2023-02-11T07:15:47.181Z,3.79
2023-02-11T07:18:35.409Z,3.82
2023-02-11T07:21:26.754Z,3.86
2023-02-11T07:24:15.439Z,3.90
2023-02-11T07:27:03.239Z,3.94
2023-02-11T07:29:51.149Z,3.99
2023-02-11T07:32:38.961Z,4.02
2023-02-11T07:35:27.005Z,4.04
2023-02-11T07:38:14.848Z,4.10
2023-02-11T07:41:07.088Z,4.14
2023-02-11T07:43:55.120Z,4.19
2023-02-11T07:46:45.280Z,4.25
2023-02-11T07:49:33.535Z,4.30
2023-02-11T07:52:21.446Z,4.32
2023-02-11T07:55:10.185Z,4.35
2023-02-11T07:57:58.175Z,4.39
2023-02-11T08:00:46.200Z,4.43
2023-02-11T08:03:36.243Z,4.47
2023-02-11T08:06:28.132Z,4.50
2023-02-11T08:09:17.035Z,4.54
2023-02-11T08:12:05.286Z,4.55
2023-02-11T08:14:53.039Z,4.56
2023-02-11T08:17:40.858Z,4.54
2023-02-11T08:20:29.266Z,4.55
2023-02-11T08:23:17.089Z,4.57
2023-02-11T08:26:15.117Z,4.60
2023-02-11T08:29:09.388Z,4.63
2023-02-11T08:31:57.320Z,4.65
2023-02-11T08:34:45.379Z,4.68
2023-02-11T08:37:33.956Z,4.70
2023-02-11T08:40:22.788Z,4.71
2023-02-11T08:43:10.992Z,4.74
2023-02-11T08:46:02.021Z,4.74
2023-02-11T08:48:50.899Z,4.75
2023-02-11T08:51:38.973Z,4.74
2023-02-11T08:54:26.802Z,4.80
2023-02-11T08:57:14.379Z,4.78
2023-02-11T09:00:03.610Z,4.78
2023-02-11T09:02:51.832Z,4.82
2023-02-11T09:05:48.199Z,4.84
2023-02-11T09:08:38.885Z,4.88
2023-02-11T09:11:33.037Z,4.97
2023-02-11T09:14:24.638Z,5.02
2023-02-11T09:17:12.744Z,5.01
2023-02-11T09:20:00.890Z,5.03
2023-02-11T09:22:48.867Z,5.17
2023-02-11T09:25:41.255Z,5.37
2023-02-11T09:28:29.065Z,5.41
2023-02-11T09:31:22.298Z,5.43
2023-02-11T09:34:12.088Z,5.44
2023-02-11T09:36:59.744Z,5.40
2023-02-11T09:39:47.812Z,5.31
2023-02-11T09:43:02.353Z,5.25
2023-02-11T09:45:55.821Z,5.18
2023-02-11T09:48:47.994Z,5.16
2023-02-11T09:51:49.869Z,5.13
2023-02-11T09:55:05.119Z,5.10
2023-02-11T09:57:53.853Z,5.14
2023-02-11T10:00:57.300Z,5.18
2023-02-11T10:03:51.198Z,5.39
2023-02-11T10:06:45.307Z,5.43
2023-02-11T10:09:35.609Z,5.52
2023-02-11T10:12:38.941Z,5.52
2023-02-11T10:15:52.308Z,5.50
2023-02-11T10:19:11.363Z,5.51
2023-02-11T10:22:25.751Z,5.48
2023-02-11T10:25:21.459Z,5.47
2023-02-11T10:28:20.179Z,5.49
2023-02-11T10:31:23.186Z,5.49
2023-02-11T10:34:13.726Z,5.51
2023-02-11T10:37:01.536Z,5.52
2023-02-11T10:39:49.437Z,5.54
2023-02-11T10:42:37.560Z,5.58
2023-02-11T10:45:45.064Z,5.62
2023-02-11T10:48:43.183Z,5.58
2023-02-11T10:51:34.307Z,5.58
2023-02-11T10:54:24.439Z,5.55
2023-02-11T10:57:20.189Z,5.56
2023-02-11T11:00:38.093Z,5.59
2023-02-11T11:03:32.390Z,5.64
2023-02-11T11:06:33.025Z,5.67
2023-02-11T11:09:43.559Z,5.70
2023-02-11T11:12:45.629Z,5.80
2023-02-11T11:15:33.514Z,5.81
2023-02-11T11:18:23.219Z,5.78
2023-02-11T11:21:24.629Z,5.76
2023-02-11T11:24:24.555Z,5.77
2023-02-11T11:27:24.900Z,5.77
2023-02-11T11:30:17.227Z,5.78
2023-02-11T11:33:05.422Z,5.77
2023-02-11T11:36:07.818Z,5.79
2023-02-11T11:39:00.961Z,5.82
2023-02-11T11:42:05.925Z,5.84
2023-02-11T11:45:10.266Z,5.87
2023-02-11T11:48:23.658Z,5.88
2023-02-11T11:51:12.801Z,5.93
2023-02-11T11:54:06.690Z,5.95
2023-02-11T11:57:04.011Z,6.00
2023-02-11T11:59:52.442Z,6.05
2023-02-11T12:03:00.433Z,6.10
2023-02-11T12:06:06.311Z,6.13
2023-02-11T12:09:41.691Z,6.16
2023-02-11T12:13:00.520Z,6.20
2023-02-11T12:16:31.452Z,6.25
2023-02-11T12:20:18.227Z,6.30
2023-02-11T12:23:30.770Z,6.34
2023-02-11T12:26:23.947Z,6.37
2023-02-11T12:30:00.513Z,6.36
2023-02-11T12:33:51.621Z,6.39
2023-02-11T12:36:55.444Z,6.42
2023-02-11T12:39:52.133Z,6.41
2023-02-11T12:43:17.952Z,6.42
2023-02-11T12:46:23.804Z,6.48
2023-02-11T12:49:23.143Z,6.58
2023-02-11T12:52:21.513Z,6.66
2023-02-11T12:55:24.520Z,6.69
2023-02-11T12:58:29.645Z,6.71
2023-02-11T13:01:34.143Z,6.71
2023-02-11T13:04:35.223Z,6.70
2023-02-11T13:07:31.270Z,6.70
2023-02-11T13:10:30.230Z,6.71
2023-02-11T13:13:39.352Z,6.72
2023-02-11T13:16:33.779Z,6.75
2023-02-11T13:19:42.597Z,6.78
2023-02-11T13:22:49.240Z,6.76
2023-02-11T13:25:49.222Z,6.75
2023-02-11T13:29:13.412Z,6.77
2023-02-11T13:32:14.629Z,6.85
2023-02-11T13:35:02.413Z,6.89
2023-02-11T13:37:50.389Z,6.91
2023-02-11T13:40:40.078Z,6.91
2023-02-11T13:43:29.630Z,6.90
2023-02-11T13:46:18.903Z,6.93
2023-02-11T13:49:20.160Z,6.94
2023-02-11T13:52:32.323Z,6.96
2023-02-11T13:55:24.503Z,6.94
2023-02-11T13:58:12.490Z,7.03
2023-02-11T14:01:00.608Z,7.08
2023-02-11T14:04:38.888Z,7.11
2023-02-11T14:07:51.601Z,7.12
2023-02-11T14:10:41.973Z,7.09
2023-02-11T14:13:56.753Z,7.09
2023-02-11T14:16:59.841Z,7.06
2023-02-11T14:19:49.506Z,7.01
2023-02-11T14:22:49.652Z,6.97
2023-02-11T14:25:40.887Z,6.95
2023-02-11T14:28:34.473Z,6.91
2023-02-11T14:31:43.022Z,6.86
2023-02-11T14:34:42.837Z,6.83
2023-02-11T14:37:39.699Z,6.83
2023-02-11T14:40:58.872Z,6.79
2023-02-11T14:43:55.157Z,6.77
2023-02-11T14:46:48.391Z,6.74
2023-02-11T14:49:40.649Z,6.72
2023-02-11T14:52:36.913Z,6.64
2023-02-11T14:55:29.394Z,6.62
2023-02-11T14:58:21.090Z,6.58
2023-02-11T15:01:41.638Z,6.54
2023-02-11T15:04:33.626Z,6.47
2023-02-11T15:07:22.428Z,6.37
2023-02-11T15:10:21.305Z,6.31
2023-02-11T15:13:16.687Z,6.26
2023-02-11T15:16:11.254Z,6.22
2023-02-11T15:19:07.534Z,6.15
2023-02-11T15:21:56.976Z,6.09
2023-02-11T15:24:45.114Z,6.03
2023-02-11T15:27:56.796Z,5.99
2023-02-11T15:30:44.944Z,5.93
2023-02-11T15:33:33.368Z,5.84
2023-02-11T15:36:28.904Z,5.77
2023-02-11T15:39:41.228Z,5.68
2023-02-11T15:42:40.794Z,5.58
2023-02-11T15:45:40.511Z,5.47
2023-02-11T15:48:47.632Z,5.40
2023-02-11T15:51:39.992Z,5.28
2023-02-11T15:54:34.409Z,5.18
2023-02-11T15:57:23.320Z,5.09
2023-02-11T16:00:28.702Z,5.04
2023-02-11T16:03:24.586Z,4.99
2023-02-11T16:06:35.964Z,4.94
2023-02-11T16:09:37.125Z,4.92
2023-02-11T16:12:30.315Z,4.88
2023-02-11T16:15:46.912Z,4.86
2023-02-11T16:19:03.282Z,4.82
2023-02-11T16:21:53.589Z,4.80
2023-02-11T16:24:42.091Z,4.79
2023-02-11T16:27:42.204Z,4.78
2023-02-11T16:30:40.625Z,4.75
2023-02-11T16:33:28.903Z,4.72
2023-02-11T16:36:17.429Z,4.69
2023-02-11T16:39:05.796Z,4.65
2023-02-11T16:41:53.743Z,4.59
2023-02-11T16:44:41.772Z,4.52
2023-02-11T16:47:31.316Z,4.44
2023-02-11T16:50:25.334Z,4.40
2023-02-11T16:53:18.737Z,4.36
2023-02-11T16:56:06.936Z,4.34
2023-02-11T16:58:55.105Z,4.30
2023-02-11T17:01:44.628Z,4.21
2023-02-11T17:04:33.774Z,4.14
2023-02-11T17:07:22.166Z,4.07
2023-02-11T17:10:20.692Z,4.03
2023-02-11T17:13:08.986Z,3.97
2023-02-11T17:15:57.024Z,3.89
2023-02-11T17:18:45.549Z,3.74
2023-02-11T17:21:34.030Z,3.62
2023-02-11T17:24:22.937Z,3.52
2023-02-11T17:27:12.207Z,3.39
2023-02-11T17:30:00.198Z,3.21
2023-02-11T17:32:48.148Z,3.06
2023-02-11T17:35:40.644Z,2.91
2023-02-11T17:38:28.433Z,2.81
2023-02-11T17:41:17.114Z,2.75
2023-02-11T17:44:07.502Z,2.69
2023-02-11T17:46:56.842Z,2.62
2023-02-11T17:49:44.784Z,2.57
2023-02-11T17:52:32.737Z,2.48
2023-02-11T17:55:20.538Z,2.42
2023-02-11T17:58:08.534Z,2.33
2023-02-11T18:00:59.236Z,2.30
2023-02-11T18:03:47.432Z,2.28
2023-02-11T18:06:35.630Z,2.23
2023-02-11T18:09:25.020Z,2.18
2023-02-11T18:12:13.139Z,2.14
2023-02-11T18:15:01.318Z,2.11
2023-02-11T18:17:49.295Z,2.08
2023-02-11T18:20:37.587Z,2.04
2023-02-11T18:23:26.629Z,2.02
2023-02-11T18:26:17.976Z,2.01
2023-02-11T18:29:07.117Z,1.99
2023-02-11T18:31:57.359Z,1.97
2023-02-11T18:34:45.413Z,1.95
2023-02-11T18:37:34.906Z,1.90
2023-02-11T18:40:22.934Z,1.89
2023-02-11T18:43:10.873Z,1.91
2023-02-11T18:45:59.457Z,1.90
2023-02-11T18:48:47.400Z,1.92
2023-02-11T18:51:38.041Z,1.92
2023-02-11T18:54:26.016Z,1.90
2023-02-11T18:57:13.891Z,1.90
2023-02-11T19:00:02.139Z,1.91
2023-02-11T19:02:50.467Z,1.93
2023-02-11T19:05:48.608Z,1.93
2023-02-11T19:08:36.590Z,1.94
2023-02-11T19:11:45.129Z,1.95
2023-02-11T19:14:34.535Z,1.94
2023-02-11T19:17:22.600Z,1.92
2023-02-11T19:20:11.182Z,1.90
2023-02-11T19:23:00.850Z,1.86
2023-02-11T19:25:49.302Z,1.84
2023-02-11T19:28:37.825Z,1.83
2023-02-11T19:31:26.634Z,1.82
2023-02-11T19:34:16.890Z,1.82
2023-02-11T19:37:05.019Z,1.81
2023-02-11T19:39:54.627Z,1.80
2023-02-11T19:42:43.127Z,1.79
2023-02-11T19:45:30.806Z,1.80
2023-02-11T19:48:18.831Z,1.82
2023-02-11T19:51:13.197Z,1.81
2023-02-11T19:54:01.365Z,1.81
2023-02-11T19:56:49.751Z,1.75
2023-02-11T19:59:37.644Z,1.71
2023-02-11T20:02:25.746Z,1.69
2023-02-11T20:05:13.863Z,1.69
2023-02-11T20:08:01.745Z,1.68
2023-02-11T20:10:50.164Z,1.71
2023-02-11T20:13:39.384Z,1.72
2023-02-11T20:16:46.039Z,1.72
2023-02-11T20:19:36.142Z,1.71
2023-02-11T20:22:24.063Z,1.69
2023-02-11T20:25:11.971Z,1.66
2023-02-11T20:28:00.213Z,1.62
2023-02-11T20:30:59.538Z,1.67
2023-02-11T20:33:48.751Z,1.69
2023-02-11T20:36:38.757Z,1.73
2023-02-11T20:39:27.543Z,1.77
2023-02-11T20:42:15.744Z,1.77
2023-02-11T20:45:03.955Z,1.72
2023-02-11T20:47:51.761Z,1.66
2023-02-11T20:50:40.104Z,1.65
2023-02-11T20:53:28.803Z,1.60
2023-02-11T20:56:23.709Z,1.51
2023-02-11T20:59:14.059Z,1.52
2023-02-11T21:02:02.352Z,1.51
2023-02-11T21:04:50.191Z,1.49
2023-02-11T21:07:39.206Z,1.49
2023-02-11T21:10:27.541Z,1.51
2023-02-11T21:13:15.972Z,1.51
2023-02-11T21:16:04.391Z,1.50
2023-02-11T21:18:52.729Z,1.48
2023-02-11T21:21:41.270Z,1.47
2023-02-11T21:24:30.971Z,1.46
2023-02-11T21:27:19.183Z,1.45
2023-02-11T21:30:08.376Z,1.45
2023-02-11T21:32:59.212Z,1.46
2023-02-11T21:35:47.023Z,1.48
2023-02-11T21:38:35.946Z,1.51
2023-02-11T21:41:24.989Z,1.54
2023-02-11T21:44:13.011Z,1.55
2023-02-11T21:47:01.281Z,1.56
2023-02-11T21:49:48.958Z,1.56
2023-02-11T21:52:37.058Z,1.56
2023-02-11T21:55:25.215Z,1.56
2023-02-11T21:58:14.112Z,1.57
2023-02-11T22:01:02.689Z,1.57
2023-02-11T22:03:50.997Z,1.56
2023-02-11T22:06:39.227Z,1.56
2023-02-11T22:09:27.099Z,1.59
2023-02-11T22:12:15.201Z,1.62
2023-02-11T22:15:03.084Z,1.59
2023-02-11T22:17:50.973Z,1.61
2023-02-11T22:20:39.072Z,1.59
2023-02-11T22:23:27.983Z,1.57
2023-02-11T22:26:21.945Z,1.53
2023-02-11T22:29:10.859Z,1.48
2023-02-11T22:31:59.059Z,1.45
2023-02-11T22:34:46.933Z,1.44
2023-02-11T22:37:34.609Z,1.45
2023-02-11T22:40:23.495Z,1.47
2023-02-11T22:43:11.273Z,1.48
2023-02-11T22:46:04.889Z,1.46
2023-02-11T22:48:53.477Z,1.43
2023-02-11T22:51:41.783Z,1.38
2023-02-11T22:54:29.483Z,1.34
2023-02-11T22:57:17.340Z,1.35
2023-02-11T23:00:10.155Z,1.39
2023-02-11T23:02:58.183Z,1.42
2023-02-11T23:05:46.085Z,1.43
2023-02-11T23:08:35.259Z,1.45
2023-02-11T23:11:28.947Z,1.48
2023-02-11T23:14:16.626Z,1.50
2023-02-11T23:17:04.770Z,1.49
2023-02-11T23:19:52.803Z,1.46
2023-02-11T23:22:40.941Z,1.42
2023-02-11T23:25:29.262Z,1.42
2023-02-11T23:28:17.578Z,1.41
2023-02-11T23:31:26.203Z,1.42
2023-02-11T23:34:23.901Z,1.41
2023-02-11T23:37:12.058Z,1.42
2023-02-11T23:40:00.043Z,1.43
2023-02-11T23:42:49.174Z,1.43
2023-02-11T23:45:37.515Z,1.41
2023-02-11T23:48:26.497Z,1.42
2023-02-11T23:51:14.672Z,1.41
2023-02-11T23:54:03.295Z,1.38
2023-02-11T23:56:50.920Z,1.40
2023-02-11T23:59:39.048Z,1.41
